sensor_id;sensor_type;location;lat;lon;timestamp;P1;durP1;ratioP1;P2;durP2;ratioP2
21038;SDS011;10678;51.002;4.786;2023-08-12T00:01:48;14.75;;;5.90;;
21038;SDS011;10678;51.002;4.786;2023-08-12T00:04:14;11.02;;;4.93;;
21038;SDS011;10678;51.002;4.786;2023-08-12T00:06:41;13.05;;;5.65;;
21038;SDS011;10678;51.002;4.786;2023-08-12T00:09:07;11.40;;;5.28;;
21038;SDS011;10678;51.002;4.786;2023-08-12T00:11:34;12.95;;;5.68;;
21038;SDS011;10678;51.002;4.786;2023-08-12T00:14:00;14.02;;;5.40;;
21038;SDS011;10678;51.002;4.786;2023-08-12T00:16:26;14.80;;;4.90;;
21038;SDS011;10678;51.002;4.786;2023-08-12T00:18:51;9.82;;;5.30;;
21038;SDS011;10678;51.002;4.786;2023-08-12T00:21:17;12.95;;;4.93;;
21038;SDS011;10678;51.002;4.786;2023-08-12T00:23:43;14.07;;;5.03;;
21038;SDS011;10678;51.002;4.786;2023-08-12T00:26:09;10.85;;;4.85;;
21038;SDS011;10678;51.002;4.786;2023-08-12T00:28:35;10.38;;;4.95;;
21038;SDS011;10678;51.002;4.786;2023-08-12T00:31:01;12.85;;;5.05;;
21038;SDS011;10678;51.002;4.786;2023-08-12T00:33:27;12.90;;;5.25;;
21038;SDS011;10678;51.002;4.786;2023-08-12T00:35:52;9.95;;;4.25;;
21038;SDS011;10678;51.002;4.786;2023-08-12T00:38:18;10.95;;;4.30;;
21038;SDS011;10678;51.002;4.786;2023-08-12T00:40:44;12.02;;;4.63;;
21038;SDS011;10678;51.002;4.786;2023-08-12T00:43:09;12.05;;;4.18;;
21038;SDS011;10678;51.002;4.786;2023-08-12T00:45:35;6.93;;;3.60;;
21038;SDS011;10678;51.002;4.786;2023-08-12T00:48:01;8.43;;;3.45;;
21038;SDS011;10678;51.002;4.786;2023-08-12T00:50:30;14.50;;;4.53;;
21038;SDS011;10678;51.002;4.786;2023-08-12T00:52:57;8.00;;;3.85;;
21038;SDS011;10678;51.002;4.786;2023-08-12T00:55:23;10.32;;;3.58;;
21038;SDS011;10678;51.002;4.786;2023-08-12T00:57:49;9.60;;;4.10;;
21038;SDS011;10678;51.002;4.786;2023-08-12T01:00:16;11.68;;;4.07;;
21038;SDS011;10678;51.002;4.786;2023-08-12T01:02:43;9.38;;;3.45;;
21038;SDS011;10678;51.002;4.786;2023-08-12T01:05:13;9.85;;;3.92;;
21038;SDS011;10678;51.002;4.786;2023-08-12T01:07:39;11.07;;;4.03;;
21038;SDS011;10678;51.002;4.786;2023-08-12T01:10:04;10.73;;;3.83;;
21038;SDS011;10678;51.002;4.786;2023-08-12T01:12:35;10.68;;;4.05;;
21038;SDS011;10678;51.002;4.786;2023-08-12T01:17:41;8.80;;;3.25;;
21038;SDS011;10678;51.002;4.786;2023-08-12T01:20:08;7.40;;;3.72;;
21038;SDS011;10678;51.002;4.786;2023-08-12T01:22:37;12.52;;;3.45;;
21038;SDS011;10678;51.002;4.786;2023-08-12T01:25:06;8.32;;;3.50;;
21038;SDS011;10678;51.002;4.786;2023-08-12T01:27:34;8.63;;;3.50;;
21038;SDS011;10678;51.002;4.786;2023-08-12T01:30:00;7.68;;;3.50;;
21038;SDS011;10678;51.002;4.786;2023-08-12T01:32:41;9.50;;;4.00;;
21038;SDS011;10678;51.002;4.786;2023-08-12T01:35:18;12.05;;;3.63;;
21038;SDS011;10678;51.002;4.786;2023-08-12T01:37:57;8.65;;;3.83;;
21038;SDS011;10678;51.002;4.786;2023-08-12T01:40:25;9.82;;;3.38;;
21038;SDS011;10678;51.002;4.786;2023-08-12T01:42:53;8.25;;;3.80;;
21038;SDS011;10678;51.002;4.786;2023-08-12T01:45:19;11.48;;;3.97;;
21038;SDS011;10678;51.002;4.786;2023-08-12T01:47:44;10.40;;;4.00;;
21038;SDS011;10678;51.002;4.786;2023-08-12T01:50:10;9.20;;;3.97;;
21038;SDS011;10678;51.002;4.786;2023-08-12T01:52:36;8.88;;;4.28;;
21038;SDS011;10678;51.002;4.786;2023-08-12T01:55:02;7.63;;;3.70;;
21038;SDS011;10678;51.002;4.786;2023-08-12T01:57:28;12.32;;;3.80;;
21038;SDS011;10678;51.002;4.786;2023-08-12T01:59:54;12.52;;;3.90;;
21038;SDS011;10678;51.002;4.786;2023-08-12T02:02:19;9.43;;;3.78;;
21038;SDS011;10678;51.002;4.786;2023-08-12T02:04:45;7.82;;;3.80;;
21038;SDS011;10678;51.002;4.786;2023-08-12T02:07:11;9.27;;;4.28;;
21038;SDS011;10678;51.002;4.786;2023-08-12T02:09:36;10.95;;;3.72;;
21038;SDS011;10678;51.002;4.786;2023-08-12T02:12:02;9.13;;;4.20;;
21038;SDS011;10678;51.002;4.786;2023-08-12T02:14:28;10.50;;;4.18;;
21038;SDS011;10678;51.002;4.786;2023-08-12T02:16:54;13.52;;;4.25;;
21038;SDS011;10678;51.002;4.786;2023-08-12T02:19:19;10.68;;;3.65;;
21038;SDS011;10678;51.002;4.786;2023-08-12T02:21:45;8.07;;;3.88;;
21038;SDS011;10678;51.002;4.786;2023-08-12T02:24:10;10.43;;;4.10;;
21038;SDS011;10678;51.002;4.786;2023-08-12T02:26:37;10.23;;;3.75;;
21038;SDS011;10678;51.002;4.786;2023-08-12T02:29:03;11.45;;;3.92;;
21038;SDS011;10678;51.002;4.786;2023-08-12T02:31:29;8.05;;;3.70;;
21038;SDS011;10678;51.002;4.786;2023-08-12T02:33:54;8.35;;;3.83;;
21038;SDS011;10678;51.002;4.786;2023-08-12T02:36:20;9.05;;;3.67;;
21038;SDS011;10678;51.002;4.786;2023-08-12T02:38:46;8.68;;;3.50;;
21038;SDS011;10678;51.002;4.786;2023-08-12T02:41:11;9.32;;;3.70;;
21038;SDS011;10678;51.002;4.786;2023-08-12T02:43:37;9.98;;;3.80;;
21038;SDS011;10678;51.002;4.786;2023-08-12T02:46:03;7.70;;;3.83;;
21038;SDS011;10678;51.002;4.786;2023-08-12T02:48:28;9.70;;;3.88;;
21038;SDS011;10678;51.002;4.786;2023-08-12T02:50:54;10.73;;;3.85;;
21038;SDS011;10678;51.002;4.786;2023-08-12T02:53:20;10.00;;;4.35;;
21038;SDS011;10678;51.002;4.786;2023-08-12T02:55:45;7.25;;;3.90;;
21038;SDS011;10678;51.002;4.786;2023-08-12T02:58:11;9.93;;;4.50;;
21038;SDS011;10678;51.002;4.786;2023-08-12T03:00:36;7.60;;;4.22;;
21038;SDS011;10678;51.002;4.786;2023-08-12T03:03:05;9.27;;;3.70;;
21038;SDS011;10678;51.002;4.786;2023-08-12T03:05:32;11.48;;;4.50;;
21038;SDS011;10678;51.002;4.786;2023-08-12T03:07:57;13.02;;;4.57;;
21038;SDS011;10678;51.002;4.786;2023-08-12T03:10:26;12.60;;;4.13;;
21038;SDS011;10678;51.002;4.786;2023-08-12T03:12:52;11.75;;;4.28;;
21038;SDS011;10678;51.002;4.786;2023-08-12T03:15:18;11.02;;;3.88;;
21038;SDS011;10678;51.002;4.786;2023-08-12T03:17:44;8.65;;;3.88;;
21038;SDS011;10678;51.002;4.786;2023-08-12T03:20:10;8.40;;;4.25;;
21038;SDS011;10678;51.002;4.786;2023-08-12T03:22:36;9.13;;;3.75;;
21038;SDS011;10678;51.002;4.786;2023-08-12T03:25:02;9.85;;;4.10;;
21038;SDS011;10678;51.002;4.786;2023-08-12T03:27:28;9.82;;;3.70;;
21038;SDS011;10678;51.002;4.786;2023-08-12T03:29:54;10.45;;;4.78;;
21038;SDS011;10678;51.002;4.786;2023-08-12T03:32:19;9.80;;;4.80;;
21038;SDS011;10678;51.002;4.786;2023-08-12T03:34:45;8.65;;;4.35;;
21038;SDS011;10678;51.002;4.786;2023-08-12T03:37:11;9.30;;;4.50;;
21038;SDS011;10678;51.002;4.786;2023-08-12T03:39:36;9.30;;;4.15;;
21038;SDS011;10678;51.002;4.786;2023-08-12T03:42:02;12.32;;;4.47;;
21038;SDS011;10678;51.002;4.786;2023-08-12T03:44:28;12.00;;;4.57;;
21038;SDS011;10678;51.002;4.786;2023-08-12T03:46:53;11.18;;;4.78;;
21038;SDS011;10678;51.002;4.786;2023-08-12T03:49:19;8.85;;;4.70;;
21038;SDS011;10678;51.002;4.786;2023-08-12T03:51:45;10.57;;;4.97;;
21038;SDS011;10678;51.002;4.786;2023-08-12T03:54:11;12.50;;;5.07;;
21038;SDS011;10678;51.002;4.786;2023-08-12T03:56:36;10.65;;;5.38;;
21038;SDS011;10678;51.002;4.786;2023-08-12T03:59:02;12.07;;;5.63;;
21038;SDS011;10678;51.002;4.786;2023-08-12T04:01:27;9.35;;;5.18;;
21038;SDS011;10678;51.002;4.786;2023-08-12T04:03:53;12.25;;;5.82;;
21038;SDS011;10678;51.002;4.786;2023-08-12T04:06:19;11.60;;;6.07;;
21038;SDS011;10678;51.002;4.786;2023-08-12T04:08:44;9.75;;;5.25;;
21038;SDS011;10678;51.002;4.786;2023-08-12T04:11:10;12.13;;;5.13;;
21038;SDS011;10678;51.002;4.786;2023-08-12T04:13:35;14.10;;;6.13;;
21038;SDS011;10678;51.002;4.786;2023-08-12T04:16:01;10.02;;;5.40;;
21038;SDS011;10678;51.002;4.786;2023-08-12T04:18:27;10.02;;;5.10;;
21038;SDS011;10678;51.002;4.786;2023-08-12T04:20:52;12.95;;;5.43;;
21038;SDS011;10678;51.002;4.786;2023-08-12T04:23:19;12.80;;;5.03;;
21038;SDS011;10678;51.002;4.786;2023-08-12T04:25:45;12.27;;;4.60;;
21038;SDS011;10678;51.002;4.786;2023-08-12T04:28:12;10.40;;;4.28;;
21038;SDS011;10678;51.002;4.786;2023-08-12T04:30:45;8.63;;;4.25;;
21038;SDS011;10678;51.002;4.786;2023-08-12T04:33:12;8.98;;;4.35;;
21038;SDS011;10678;51.002;4.786;2023-08-12T04:35:39;9.88;;;4.00;;
21038;SDS011;10678;51.002;4.786;2023-08-12T04:38:05;12.82;;;4.10;;
21038;SDS011;10678;51.002;4.786;2023-08-12T04:40:31;8.73;;;4.35;;
21038;SDS011;10678;51.002;4.786;2023-08-12T04:43:00;7.50;;;3.65;;
21038;SDS011;10678;51.002;4.786;2023-08-12T04:45:26;12.65;;;4.30;;
21038;SDS011;10678;51.002;4.786;2023-08-12T04:47:52;6.47;;;3.35;;
21038;SDS011;10678;51.002;4.786;2023-08-12T04:50:18;9.05;;;4.35;;
21038;SDS011;10678;51.002;4.786;2023-08-12T04:52:44;7.18;;;3.83;;
21038;SDS011;10678;51.002;4.786;2023-08-12T04:55:11;6.97;;;3.67;;
21038;SDS011;10678;51.002;4.786;2023-08-12T04:57:37;9.38;;;3.38;;
21038;SDS011;10678;51.002;4.786;2023-08-12T05:00:03;6.78;;;3.90;;
21038;SDS011;10678;51.002;4.786;2023-08-12T05:02:30;8.35;;;3.92;;
21038;SDS011;10678;51.002;4.786;2023-08-12T05:04:55;6.65;;;3.60;;
21038;SDS011;10678;51.002;4.786;2023-08-12T05:07:21;5.88;;;3.22;;
21038;SDS011;10678;51.002;4.786;2023-08-12T05:09:47;9.57;;;3.40;;
21038;SDS011;10678;51.002;4.786;2023-08-12T05:12:13;7.38;;;4.30;;
21038;SDS011;10678;51.002;4.786;2023-08-12T05:14:39;12.13;;;4.00;;
21038;SDS011;10678;51.002;4.786;2023-08-12T05:17:05;8.23;;;3.88;;
21038;SDS011;10678;51.002;4.786;2023-08-12T05:19:31;9.38;;;4.07;;
21038;SDS011;10678;51.002;4.786;2023-08-12T05:21:57;7.20;;;4.30;;
21038;SDS011;10678;51.002;4.786;2023-08-12T05:24:23;13.43;;;4.90;;
21038;SDS011;10678;51.002;4.786;2023-08-12T05:26:49;12.48;;;5.10;;
21038;SDS011;10678;51.002;4.786;2023-08-12T05:29:14;7.68;;;4.53;;
21038;SDS011;10678;51.002;4.786;2023-08-12T05:31:40;10.77;;;5.35;;
21038;SDS011;10678;51.002;4.786;2023-08-12T05:34:05;11.85;;;5.70;;
21038;SDS011;10678;51.002;4.786;2023-08-12T05:36:31;12.50;;;5.60;;
21038;SDS011;10678;51.002;4.786;2023-08-12T05:38:57;13.50;;;5.22;;
21038;SDS011;10678;51.002;4.786;2023-08-12T05:41:23;9.02;;;4.60;;
21038;SDS011;10678;51.002;4.786;2023-08-12T05:43:49;8.82;;;4.45;;
21038;SDS011;10678;51.002;4.786;2023-08-12T05:46:14;11.70;;;5.20;;
21038;SDS011;10678;51.002;4.786;2023-08-12T05:48:40;8.80;;;5.07;;
21038;SDS011;10678;51.002;4.786;2023-08-12T05:51:06;10.73;;;4.63;;
21038;SDS011;10678;51.002;4.786;2023-08-12T05:53:31;12.45;;;5.25;;
21038;SDS011;10678;51.002;4.786;2023-08-12T05:55:58;7.20;;;4.07;;
21038;SDS011;10678;51.002;4.786;2023-08-12T05:58:23;9.77;;;4.03;;
21038;SDS011;10678;51.002;4.786;2023-08-12T06:00:49;8.10;;;4.30;;
21038;SDS011;10678;51.002;4.786;2023-08-12T06:03:15;6.90;;;3.88;;
21038;SDS011;10678;51.002;4.786;2023-08-12T06:05:42;8.18;;;4.32;;
21038;SDS011;10678;51.002;4.786;2023-08-12T06:08:10;8.45;;;3.92;;
21038;SDS011;10678;51.002;4.786;2023-08-12T06:10:35;9.77;;;4.10;;
21038;SDS011;10678;51.002;4.786;2023-08-12T06:13:01;9.48;;;4.65;;
21038;SDS011;10678;51.002;4.786;2023-08-12T06:15:27;5.88;;;3.45;;
21038;SDS011;10678;51.002;4.786;2023-08-12T06:17:52;9.80;;;3.55;;
21038;SDS011;10678;51.002;4.786;2023-08-12T06:20:18;6.85;;;3.03;;
21038;SDS011;10678;51.002;4.786;2023-08-12T06:22:44;5.18;;;3.10;;
21038;SDS011;10678;51.002;4.786;2023-08-12T06:25:09;6.53;;;2.65;;
21038;SDS011;10678;51.002;4.786;2023-08-12T06:27:35;12.30;;;3.40;;
21038;SDS011;10678;51.002;4.786;2023-08-12T06:30:01;7.50;;;2.85;;
21038;SDS011;10678;51.002;4.786;2023-08-12T06:32:26;6.68;;;2.67;;
21038;SDS011;10678;51.002;4.786;2023-08-12T06:34:52;7.78;;;2.80;;
21038;SDS011;10678;51.002;4.786;2023-08-12T06:37:17;6.60;;;2.35;;
21038;SDS011;10678;51.002;4.786;2023-08-12T06:39:43;9.27;;;3.22;;
21038;SDS011;10678;51.002;4.786;2023-08-12T06:42:09;6.70;;;2.65;;
21038;SDS011;10678;51.002;4.786;2023-08-12T06:44:34;5.15;;;2.20;;
21038;SDS011;10678;51.002;4.786;2023-08-12T06:47:00;5.90;;;2.28;;
21038;SDS011;10678;51.002;4.786;2023-08-12T06:49:26;5.07;;;2.10;;
21038;SDS011;10678;51.002;4.786;2023-08-12T06:51:51;6.63;;;1.90;;
21038;SDS011;10678;51.002;4.786;2023-08-12T06:54:17;6.50;;;2.03;;
21038;SDS011;10678;51.002;4.786;2023-08-12T06:56:42;6.93;;;1.90;;
21038;SDS011;10678;51.002;4.786;2023-08-12T06:59:08;7.85;;;1.77;;
21038;SDS011;10678;51.002;4.786;2023-08-12T07:01:34;3.20;;;1.33;;
21038;SDS011;10678;51.002;4.786;2023-08-12T07:03:59;4.93;;;1.70;;
21038;SDS011;10678;51.002;4.786;2023-08-12T07:06:25;4.18;;;1.48;;
21038;SDS011;10678;51.002;4.786;2023-08-12T07:08:51;7.78;;;1.50;;
21038;SDS011;10678;51.002;4.786;2023-08-12T07:11:16;4.82;;;1.75;;
21038;SDS011;10678;51.002;4.786;2023-08-12T07:13:42;5.20;;;1.20;;
21038;SDS011;10678;51.002;4.786;2023-08-12T07:16:11;3.72;;;0.98;;
21038;SDS011;10678;51.002;4.786;2023-08-12T07:18:36;3.83;;;1.30;;
21038;SDS011;10678;51.002;4.786;2023-08-12T07:21:02;5.15;;;1.40;;
21038;SDS011;10678;51.002;4.786;2023-08-12T07:23:28;3.38;;;1.10;;
21038;SDS011;10678;51.002;4.786;2023-08-12T07:25:54;4.07;;;1.08;;
21038;SDS011;10678;51.002;4.786;2023-08-12T07:28:20;5.30;;;1.13;;
21038;SDS011;10678;51.002;4.786;2023-08-12T07:30:45;3.15;;;0.80;;
21038;SDS011;10678;51.002;4.786;2023-08-12T07:33:12;6.70;;;1.02;;
21038;SDS011;10678;51.002;4.786;2023-08-12T07:35:38;4.07;;;0.90;;
21038;SDS011;10678;51.002;4.786;2023-08-12T07:38:04;5.10;;;1.05;;
21038;SDS011;10678;51.002;4.786;2023-08-12T07:40:30;3.10;;;0.80;;
21038;SDS011;10678;51.002;4.786;2023-08-12T07:42:55;7.97;;;1.27;;
21038;SDS011;10678;51.002;4.786;2023-08-12T07:45:21;5.55;;;1.30;;
21038;SDS011;10678;51.002;4.786;2023-08-12T07:47:48;1.77;;;0.60;;
21038;SDS011;10678;51.002;4.786;2023-08-12T07:50:14;5.55;;;1.23;;
21038;SDS011;10678;51.002;4.786;2023-08-12T07:52:40;8.10;;;1.08;;
21038;SDS011;10678;51.002;4.786;2023-08-12T07:55:06;3.63;;;0.80;;
21038;SDS011;10678;51.002;4.786;2023-08-12T07:57:32;2.00;;;0.65;;
21038;SDS011;10678;51.002;4.786;2023-08-12T07:59:57;4.70;;;0.68;;
21038;SDS011;10678;51.002;4.786;2023-08-12T08:02:23;4.85;;;0.90;;
21038;SDS011;10678;51.002;4.786;2023-08-12T08:04:48;5.00;;;0.90;;
21038;SDS011;10678;51.002;4.786;2023-08-12T08:07:15;2.20;;;0.90;;
21038;SDS011;10678;51.002;4.786;2023-08-12T08:09:41;5.68;;;1.20;;
21038;SDS011;10678;51.002;4.786;2023-08-12T08:12:08;4.40;;;1.15;;
21038;SDS011;10678;51.002;4.786;2023-08-12T08:14:34;3.25;;;1.20;;
21038;SDS011;10678;51.002;4.786;2023-08-12T08:16:59;4.95;;;1.25;;
21038;SDS011;10678;51.002;4.786;2023-08-12T08:19:25;6.35;;;1.20;;
21038;SDS011;10678;51.002;4.786;2023-08-12T08:21:51;3.58;;;1.10;;
21038;SDS011;10678;51.002;4.786;2023-08-12T08:24:16;3.92;;;1.10;;
21038;SDS011;10678;51.002;4.786;2023-08-12T08:26:42;2.42;;;0.98;;
21038;SDS011;10678;51.002;4.786;2023-08-12T08:29:10;4.38;;;0.90;;
21038;SDS011;10678;51.002;4.786;2023-08-12T08:31:36;3.65;;;1.20;;
21038;SDS011;10678;51.002;4.786;2023-08-12T08:34:01;4.32;;;1.08;;
21038;SDS011;10678;51.002;4.786;2023-08-12T08:36:27;2.83;;;1.17;;
21038;SDS011;10678;51.002;4.786;2023-08-12T08:38:53;3.58;;;1.15;;
21038;SDS011;10678;51.002;4.786;2023-08-12T08:41:18;3.30;;;1.20;;
21038;SDS011;10678;51.002;4.786;2023-08-12T08:43:45;3.90;;;1.20;;
21038;SDS011;10678;51.002;4.786;2023-08-12T08:46:16;3.70;;;1.30;;
21038;SDS011;10678;51.002;4.786;2023-08-12T08:48:42;2.33;;;0.90;;
21038;SDS011;10678;51.002;4.786;2023-08-12T08:51:12;3.13;;;0.90;;
21038;SDS011;10678;51.002;4.786;2023-08-12T08:53:39;9.02;;;0.93;;
21038;SDS011;10678;51.002;4.786;2023-08-12T08:56:05;4.25;;;0.90;;
21038;SDS011;10678;51.002;4.786;2023-08-12T08:58:32;4.00;;;0.77;;
21038;SDS011;10678;51.002;4.786;2023-08-12T09:00:58;6.10;;;0.88;;
21038;SDS011;10678;51.002;4.786;2023-08-12T09:03:25;2.85;;;0.93;;
21038;SDS011;10678;51.002;4.786;2023-08-12T09:05:51;2.75;;;1.00;;
21038;SDS011;10678;51.002;4.786;2023-08-12T09:08:20;6.70;;;0.90;;
21038;SDS011;10678;51.002;4.786;2023-08-12T09:10:46;4.75;;;1.38;;
21038;SDS011;10678;51.002;4.786;2023-08-12T09:13:13;5.05;;;1.20;;
21038;SDS011;10678;51.002;4.786;2023-08-12T09:15:39;6.18;;;1.02;;
21038;SDS011;10678;51.002;4.786;2023-08-12T09:18:05;4.30;;;1.00;;
21038;SDS011;10678;51.002;4.786;2023-08-12T09:20:32;5.53;;;1.20;;
21038;SDS011;10678;51.002;4.786;2023-08-12T09:22:58;3.40;;;1.20;;
21038;SDS011;10678;51.002;4.786;2023-08-12T09:25:26;3.30;;;1.45;;
21038;SDS011;10678;51.002;4.786;2023-08-12T09:27:53;3.15;;;1.40;;
21038;SDS011;10678;51.002;4.786;2023-08-12T09:30:29;4.15;;;1.48;;
21038;SDS011;10678;51.002;4.786;2023-08-12T09:33:02;3.13;;;1.10;;
21038;SDS011;10678;51.002;4.786;2023-08-12T09:35:39;2.35;;;1.02;;
21038;SDS011;10678;51.002;4.786;2023-08-12T09:38:12;2.55;;;1.13;;
21038;SDS011;10678;51.002;4.786;2023-08-12T09:40:38;7.47;;;1.20;;
21038;SDS011;10678;51.002;4.786;2023-08-12T09:43:05;5.35;;;1.30;;
21038;SDS011;10678;51.002;4.786;2023-08-12T09:45:31;3.63;;;1.10;;
21038;SDS011;10678;51.002;4.786;2023-08-12T09:48:00;4.90;;;1.52;;
21038;SDS011;10678;51.002;4.786;2023-08-12T09:50:26;5.40;;;1.17;;
21038;SDS011;10678;51.002;4.786;2023-08-12T09:52:52;2.92;;;1.13;;
21038;SDS011;10678;51.002;4.786;2023-08-12T09:55:20;5.95;;;1.65;;
21038;SDS011;10678;51.002;4.786;2023-08-12T09:57:48;6.03;;;2.05;;
21038;SDS011;10678;51.002;4.786;2023-08-12T10:00:17;5.20;;;2.53;;
21038;SDS011;10678;51.002;4.786;2023-08-12T10:02:45;4.35;;;2.00;;
21038;SDS011;10678;51.002;4.786;2023-08-12T10:05:13;6.63;;;1.90;;
21038;SDS011;10678;51.002;4.786;2023-08-12T10:07:43;8.63;;;2.10;;
21038;SDS011;10678;51.002;4.786;2023-08-12T10:10:11;4.38;;;2.20;;
21038;SDS011;10678;51.002;4.786;2023-08-12T10:12:38;10.32;;;2.10;;
21038;SDS011;10678;51.002;4.786;2023-08-12T10:15:05;6.43;;;2.58;;
21038;SDS011;10678;51.002;4.786;2023-08-12T10:17:33;9.30;;;2.45;;
21038;SDS011;10678;51.002;4.786;2023-08-12T10:20:00;5.38;;;1.92;;
21038;SDS011;10678;51.002;4.786;2023-08-12T10:22:29;5.53;;;2.28;;
21038;SDS011;10678;51.002;4.786;2023-08-12T10:24:57;8.32;;;2.28;;
21038;SDS011;10678;51.002;4.786;2023-08-12T10:27:25;7.90;;;3.00;;
21038;SDS011;10678;51.002;4.786;2023-08-12T10:29:50;7.60;;;2.60;;
21038;SDS011;10678;51.002;4.786;2023-08-12T10:32:16;8.18;;;2.08;;
21038;SDS011;10678;51.002;4.786;2023-08-12T10:34:42;5.03;;;1.98;;
21038;SDS011;10678;51.002;4.786;2023-08-12T10:37:08;9.25;;;2.53;;
21038;SDS011;10678;51.002;4.786;2023-08-12T10:39:35;5.50;;;2.22;;
21038;SDS011;10678;51.002;4.786;2023-08-12T10:42:02;7.80;;;3.00;;
21038;SDS011;10678;51.002;4.786;2023-08-12T10:47:16;9.00;;;2.53;;
21038;SDS011;10678;51.002;4.786;2023-08-12T10:49:43;6.78;;;2.40;;
21038;SDS011;10678;51.002;4.786;2023-08-12T10:52:28;8.48;;;2.08;;
21038;SDS011;10678;51.002;4.786;2023-08-12T10:54:55;12.32;;;2.45;;
21038;SDS011;10678;51.002;4.786;2023-08-12T10:57:44;7.95;;;1.80;;
21038;SDS011;10678;51.002;4.786;2023-08-12T11:00:10;6.68;;;2.00;;
21038;SDS011;10678;51.002;4.786;2023-08-12T11:02:39;9.25;;;2.20;;
21038;SDS011;10678;51.002;4.786;2023-08-12T11:05:09;10.05;;;2.25;;
21038;SDS011;10678;51.002;4.786;2023-08-12T11:10:05;8.48;;;1.90;;
21038;SDS011;10678;51.002;4.786;2023-08-12T11:12:48;5.65;;;1.98;;
21038;SDS011;10678;51.002;4.786;2023-08-12T11:15:17;10.90;;;2.25;;
21038;SDS011;10678;51.002;4.786;2023-08-12T11:18:03;7.50;;;2.22;;
21038;SDS011;10678;51.002;4.786;2023-08-12T11:20:30;6.00;;;1.80;;
21038;SDS011;10678;51.002;4.786;2023-08-12T11:22:56;6.50;;;1.70;;
21038;SDS011;10678;51.002;4.786;2023-08-12T11:25:23;8.02;;;1.90;;
21038;SDS011;10678;51.002;4.786;2023-08-12T11:27:49;10.45;;;1.75;;
21038;SDS011;10678;51.002;4.786;2023-08-12T11:30:16;6.50;;;1.55;;
21038;SDS011;10678;51.002;4.786;2023-08-12T11:32:47;5.05;;;1.55;;
21038;SDS011;10678;51.002;4.786;2023-08-12T11:35:14;9.20;;;1.90;;
21038;SDS011;10678;51.002;4.786;2023-08-12T11:37:42;7.15;;;1.75;;
21038;SDS011;10678;51.002;4.786;2023-08-12T11:40:09;6.22;;;1.80;;
21038;SDS011;10678;51.002;4.786;2023-08-12T11:42:36;6.75;;;1.95;;
21038;SDS011;10678;51.002;4.786;2023-08-12T11:45:04;9.40;;;1.65;;
21038;SDS011;10678;51.002;4.786;2023-08-12T11:47:30;6.05;;;1.63;;
21038;SDS011;10678;51.002;4.786;2023-08-12T11:49:56;5.95;;;1.50;;
21038;SDS011;10678;51.002;4.786;2023-08-12T11:52:22;7.18;;;1.75;;
21038;SDS011;10678;51.002;4.786;2023-08-12T11:54:49;6.50;;;1.33;;
21038;SDS011;10678;51.002;4.786;2023-08-12T11:57:15;10.95;;;1.88;;
21038;SDS011;10678;51.002;4.786;2023-08-12T11:59:42;6.72;;;1.33;;
21038;SDS011;10678;51.002;4.786;2023-08-12T12:02:08;6.70;;;1.80;;
21038;SDS011;10678;51.002;4.786;2023-08-12T12:04:35;6.60;;;1.23;;
21038;SDS011;10678;51.002;4.786;2023-08-12T12:07:00;4.90;;;1.27;;
21038;SDS011;10678;51.002;4.786;2023-08-12T12:09:31;7.97;;;1.50;;
21038;SDS011;10678;51.002;4.786;2023-08-12T12:11:57;8.60;;;1.60;;
21038;SDS011;10678;51.002;4.786;2023-08-12T12:14:24;6.50;;;1.35;;
21038;SDS011;10678;51.002;4.786;2023-08-12T12:16:50;6.45;;;1.40;;
21038;SDS011;10678;51.002;4.786;2023-08-12T12:19:17;4.72;;;1.10;;
21038;SDS011;10678;51.002;4.786;2023-08-12T12:21:50;10.77;;;1.30;;
21038;SDS011;10678;51.002;4.786;2023-08-12T12:24:18;8.20;;;1.13;;
21038;SDS011;10678;51.002;4.786;2023-08-12T12:26:44;8.73;;;1.42;;
21038;SDS011;10678;51.002;4.786;2023-08-12T12:29:12;4.57;;;0.90;;
21038;SDS011;10678;51.002;4.786;2023-08-12T12:31:39;5.78;;;1.38;;
21038;SDS011;10678;51.002;4.786;2023-08-12T12:34:06;6.72;;;1.15;;
21038;SDS011;10678;51.002;4.786;2023-08-12T12:36:36;5.13;;;1.00;;
21038;SDS011;10678;51.002;4.786;2023-08-12T12:39:03;4.57;;;1.17;;
21038;SDS011;10678;51.002;4.786;2023-08-12T12:41:30;7.28;;;1.30;;
21038;SDS011;10678;51.002;4.786;2023-08-12T12:43:56;7.45;;;1.45;;
21038;SDS011;10678;51.002;4.786;2023-08-12T12:46:22;7.30;;;1.00;;
21038;SDS011;10678;51.002;4.786;2023-08-12T12:48:47;8.55;;;1.40;;
21038;SDS011;10678;51.002;4.786;2023-08-12T12:51:13;5.40;;;1.45;;
21038;SDS011;10678;51.002;4.786;2023-08-12T12:53:39;8.20;;;1.25;;
21038;SDS011;10678;51.002;4.786;2023-08-12T12:56:06;6.60;;;1.20;;
21038;SDS011;10678;51.002;4.786;2023-08-12T12:58:35;7.38;;;1.05;;
21038;SDS011;10678;51.002;4.786;2023-08-12T13:01:02;5.80;;;1.20;;
21038;SDS011;10678;51.002;4.786;2023-08-12T13:03:32;3.75;;;0.80;;
21038;SDS011;10678;51.002;4.786;2023-08-12T13:05:58;7.53;;;1.60;;
21038;SDS011;10678;51.002;4.786;2023-08-12T13:08:24;7.68;;;1.20;;
21038;SDS011;10678;51.002;4.786;2023-08-12T13:10:50;5.45;;;1.05;;
21038;SDS011;10678;51.002;4.786;2023-08-12T13:13:16;5.38;;;1.40;;
21038;SDS011;10678;51.002;4.786;2023-08-12T13:15:43;8.23;;;1.52;;
21038;SDS011;10678;51.002;4.786;2023-08-12T13:18:09;9.60;;;1.45;;
21038;SDS011;10678;51.002;4.786;2023-08-12T13:20:36;7.10;;;1.20;;
21038;SDS011;10678;51.002;4.786;2023-08-12T13:23:02;7.35;;;1.33;;
21038;SDS011;10678;51.002;4.786;2023-08-12T13:25:29;7.78;;;1.50;;
21038;SDS011;10678;51.002;4.786;2023-08-12T13:27:56;7.95;;;1.58;;
21038;SDS011;10678;51.002;4.786;2023-08-12T13:30:23;4.35;;;1.10;;
21038;SDS011;10678;51.002;4.786;2023-08-12T13:32:48;5.18;;;1.23;;
21038;SDS011;10678;51.002;4.786;2023-08-12T13:35:14;5.80;;;1.40;;
21038;SDS011;10678;51.002;4.786;2023-08-12T13:37:39;4.93;;;1.33;;
21038;SDS011;10678;51.002;4.786;2023-08-12T13:40:05;5.22;;;1.25;;
21038;SDS011;10678;51.002;4.786;2023-08-12T13:42:31;8.50;;;1.80;;
21038;SDS011;10678;51.002;4.786;2023-08-12T13:44:57;7.95;;;1.30;;
21038;SDS011;10678;51.002;4.786;2023-08-12T13:47:23;8.23;;;1.17;;
21038;SDS011;10678;51.002;4.786;2023-08-12T13:49:48;7.53;;;1.70;;
21038;SDS011;10678;51.002;4.786;2023-08-12T13:52:14;6.25;;;1.15;;
21038;SDS011;10678;51.002;4.786;2023-08-12T13:54:40;7.53;;;1.10;;
21038;SDS011;10678;51.002;4.786;2023-08-12T13:57:06;6.55;;;1.80;;
21038;SDS011;10678;51.002;4.786;2023-08-12T13:59:31;6.10;;;1.38;;
21038;SDS011;10678;51.002;4.786;2023-08-12T14:01:57;3.78;;;1.10;;
21038;SDS011;10678;51.002;4.786;2023-08-12T14:04:22;8.70;;;1.45;;
21038;SDS011;10678;51.002;4.786;2023-08-12T14:06:48;4.65;;;1.15;;
21038;SDS011;10678;51.002;4.786;2023-08-12T14:09:14;8.10;;;1.55;;
21038;SDS011;10678;51.002;4.786;2023-08-12T14:11:42;7.53;;;1.23;;
21038;SDS011;10678;51.002;4.786;2023-08-12T14:14:07;5.93;;;1.10;;
21038;SDS011;10678;51.002;4.786;2023-08-12T14:16:33;6.45;;;1.58;;
21038;SDS011;10678;51.002;4.786;2023-08-12T14:18:59;7.38;;;1.35;;
21038;SDS011;10678;51.002;4.786;2023-08-12T14:21:24;5.00;;;1.20;;
21038;SDS011;10678;51.002;4.786;2023-08-12T14:23:50;6.63;;;2.17;;
21038;SDS011;10678;51.002;4.786;2023-08-12T14:26:15;5.85;;;1.45;;
21038;SDS011;10678;51.002;4.786;2023-08-12T14:28:41;6.70;;;1.42;;
21038;SDS011;10678;51.002;4.786;2023-08-12T14:31:07;8.68;;;1.50;;
21038;SDS011;10678;51.002;4.786;2023-08-12T14:33:32;5.85;;;1.88;;
21038;SDS011;10678;51.002;4.786;2023-08-12T14:35:58;7.93;;;1.80;;
21038;SDS011;10678;51.002;4.786;2023-08-12T14:38:24;6.47;;;1.60;;
21038;SDS011;10678;51.002;4.786;2023-08-12T14:40:50;9.88;;;1.48;;
21038;SDS011;10678;51.002;4.786;2023-08-12T14:43:15;6.38;;;1.60;;
21038;SDS011;10678;51.002;4.786;2023-08-12T14:45:41;6.45;;;1.60;;
21038;SDS011;10678;51.002;4.786;2023-08-12T14:48:09;9.45;;;1.80;;
21038;SDS011;10678;51.002;4.786;2023-08-12T14:50:37;4.32;;;1.40;;